VLG22KC LEMH-LEBL
Flight info
| Callsign | VLG22KC |
|---|---|
| Flight time | 0h 31m |
| Altitude | 18000 |
| Route | LUNIK Q255 OSTUR |
| Aircraft | A320/M-SDE3FGHIRWY/LB1 |
Departure
| Time | 2026-05-06 20:12 |
|---|---|
| Airport | Menorca Airport (LEMH) |
Arrival
| Time | 2026-05-06 20:44 |
|---|---|
| Airport | Josep Tarradellas Barcelona-El Prat Airport (LEBL) |
| Time | Latitude | Longitude | Altitude | Speed | Heading |
|---|---|---|---|---|---|
| 2026-05-06 19:46 | 39.86425 | 4.22396 | 289 ft | 0 kts | 99° |
| 2026-05-06 19:57 | 39.86426 | 4.22383 | 292 ft | 3 kts | 101° |
| 2026-05-06 19:57 | 39.86431 | 4.22357 | 290 ft | 3 kts | 110° |
| 2026-05-06 19:58 | 39.86439 | 4.22334 | 294 ft | 3 kts | 127° |
| 2026-05-06 19:58 | 39.86452 | 4.22317 | 294 ft | 3 kts | 165° |
| 2026-05-06 19:58 | 39.86462 | 4.22315 | 291 ft | 0 kts | 188° |
| 2026-05-06 20:01 | 39.86461 | 4.22315 | 288 ft | 0 kts | 188° |
| 2026-05-06 20:03 | 39.86452 | 4.22314 | 288 ft | 3 kts | 188° |
| 2026-05-06 20:03 | 39.86424 | 4.22308 | 288 ft | 6 kts | 188° |
| 2026-05-06 20:04 | 39.86374 | 4.22298 | 288 ft | 9 kts | 188° |
| 2026-05-06 20:04 | 39.86304 | 4.22284 | 288 ft | 12 kts | 189° |
| 2026-05-06 20:04 | 39.86213 | 4.22264 | 288 ft | 14 kts | 198° |
| 2026-05-06 20:04 | 39.86190 | 4.22156 | 291 ft | 13 kts | 278° |
| 2026-05-06 20:05 | 39.86148 | 4.22081 | 298 ft | 11 kts | 199° |
| 2026-05-06 20:05 | 39.86063 | 4.22064 | 295 ft | 13 kts | 189° |
| 2026-05-06 20:05 | 39.85965 | 4.22042 | 296 ft | 15 kts | 189° |
| 2026-05-06 20:05 | 39.85846 | 4.22017 | 295 ft | 19 kts | 188° |
| 2026-05-06 20:06 | 39.85695 | 4.21987 | 291 ft | 25 kts | 188° |
| 2026-05-06 20:06 | 39.85538 | 4.21956 | 286 ft | 24 kts | 188° |
| 2026-05-06 20:06 | 39.85363 | 4.21921 | 285 ft | 28 kts | 188° |
| 2026-05-06 20:06 | 39.85221 | 4.21894 | 284 ft | 14 kts | 188° |
| 2026-05-06 20:07 | 39.85124 | 4.21872 | 281 ft | 13 kts | 191° |
| 2026-05-06 20:07 | 39.85068 | 4.21787 | 280 ft | 15 kts | 286° |
| 2026-05-06 20:07 | 39.85122 | 4.21688 | 285 ft | 12 kts | 310° |
| 2026-05-06 20:07 | 39.85188 | 4.21645 | 286 ft | 3 kts | 7° |
| 2026-05-06 20:11 | 39.85197 | 4.21647 | 286 ft | 3 kts | 8° |
| 2026-05-06 20:12 | 39.85301 | 4.21666 | 285 ft | 44 kts | 8° |
| 2026-05-06 20:12 | 39.85878 | 4.21782 | 300 ft | 117 kts | 10° |
| 2026-05-06 20:12 | 39.86811 | 4.21999 | 575 ft | 142 kts | 11° |
| 2026-05-06 20:12 | 39.87787 | 4.22199 | 1219 ft | 143 kts | 11° |
| 2026-05-06 20:13 | 39.88772 | 4.22389 | 1754 ft | 151 kts | 11° |
| 2026-05-06 20:13 | 39.89891 | 4.22621 | 2084 ft | 174 kts | 11° |
| 2026-05-06 20:13 | 39.91175 | 4.22893 | 2453 ft | 197 kts | 11° |
| 2026-05-06 20:13 | 39.92610 | 4.23197 | 2806 ft | 220 kts | 10° |
| 2026-05-06 20:14 | 39.94186 | 4.23513 | 3270 ft | 241 kts | 7° |
| 2026-05-06 20:14 | 39.95899 | 4.23153 | 3833 ft | 262 kts | 332° |
| 2026-05-06 20:14 | 39.97355 | 4.21709 | 4827 ft | 266 kts | 310° |
| 2026-05-06 20:14 | 39.98256 | 4.19621 | 5824 ft | 268 kts | 284° |
| 2026-05-06 20:15 | 39.98604 | 4.17222 | 6830 ft | 270 kts | 278° |
| 2026-05-06 20:15 | 39.98888 | 4.14790 | 7819 ft | 272 kts | 277° |
| 2026-05-06 20:15 | 39.99161 | 4.12335 | 8811 ft | 275 kts | 277° |
| 2026-05-06 20:15 | 39.99436 | 4.09846 | 9797 ft | 278 kts | 276° |
| 2026-05-06 20:16 | 39.99717 | 4.07307 | 10439 ft | 292 kts | 276° |
| 2026-05-06 20:16 | 40.00021 | 4.04585 | 10857 ft | 311 kts | 277° |
| 2026-05-06 20:16 | 40.00341 | 4.01800 | 11580 ft | 317 kts | 278° |
| 2026-05-06 20:16 | 40.00962 | 3.99015 | 12398 ft | 323 kts | 291° |
| 2026-05-06 20:17 | 40.02130 | 3.96490 | 13229 ft | 330 kts | 306° |
| 2026-05-06 20:17 | 40.03702 | 3.94284 | 14033 ft | 334 kts | 310° |
| 2026-05-06 20:17 | 40.05326 | 3.92095 | 14761 ft | 337 kts | 310° |
| 2026-05-06 20:17 | 40.06963 | 3.89888 | 15464 ft | 339 kts | 310° |
| 2026-05-06 20:18 | 40.08612 | 3.87658 | 16156 ft | 342 kts | 310° |
| 2026-05-06 20:18 | 40.10270 | 3.85407 | 16849 ft | 346 kts | 310° |
| 2026-05-06 20:18 | 40.11944 | 3.83131 | 17550 ft | 349 kts | 310° |
| 2026-05-06 20:18 | 40.13636 | 3.80832 | 17903 ft | 351 kts | 310° |
| 2026-05-06 20:19 | 40.15323 | 3.78540 | 17979 ft | 346 kts | 310° |
| 2026-05-06 20:19 | 40.16981 | 3.76284 | 17986 ft | 344 kts | 310° |
| 2026-05-06 20:19 | 40.18636 | 3.74027 | 17986 ft | 343 kts | 309° |
| 2026-05-06 20:19 | 40.20283 | 3.71777 | 17996 ft | 342 kts | 309° |
| 2026-05-06 20:20 | 40.21926 | 3.69528 | 17985 ft | 341 kts | 309° |
| 2026-05-06 20:20 | 40.23567 | 3.67283 | 17986 ft | 341 kts | 309° |
| 2026-05-06 20:20 | 40.25209 | 3.65037 | 17986 ft | 341 kts | 309° |
| 2026-05-06 20:20 | 40.26852 | 3.62791 | 17986 ft | 341 kts | 309° |
| 2026-05-06 20:21 | 40.28494 | 3.60542 | 17987 ft | 341 kts | 309° |
| 2026-05-06 20:21 | 40.30133 | 3.58295 | 17990 ft | 341 kts | 309° |
| 2026-05-06 20:21 | 40.31770 | 3.56048 | 17992 ft | 341 kts | 309° |
| 2026-05-06 20:21 | 40.33409 | 3.53795 | 17995 ft | 342 kts | 309° |
| 2026-05-06 20:22 | 40.35051 | 3.51540 | 17998 ft | 342 kts | 309° |
| 2026-05-06 20:22 | 40.36693 | 3.49281 | 17997 ft | 342 kts | 309° |
| 2026-05-06 20:22 | 40.38330 | 3.47024 | 17998 ft | 342 kts | 309° |
| 2026-05-06 20:22 | 40.39969 | 3.44763 | 18000 ft | 342 kts | 309° |
| 2026-05-06 20:23 | 40.41608 | 3.42498 | 18003 ft | 342 kts | 309° |
| 2026-05-06 20:23 | 40.43250 | 3.40233 | 18021 ft | 342 kts | 309° |
| 2026-05-06 20:23 | 40.44884 | 3.37967 | 18016 ft | 342 kts | 309° |
| 2026-05-06 20:23 | 40.46496 | 3.35668 | 18013 ft | 342 kts | 308° |
| 2026-05-06 20:24 | 40.48090 | 3.33349 | 18011 ft | 342 kts | 308° |
| 2026-05-06 20:24 | 40.49676 | 3.31025 | 18010 ft | 342 kts | 308° |
| 2026-05-06 20:24 | 40.51265 | 3.28693 | 18009 ft | 342 kts | 308° |
| 2026-05-06 20:24 | 40.52831 | 3.26395 | 18008 ft | 342 kts | 308° |
| 2026-05-06 20:25 | 40.54411 | 3.24085 | 17809 ft | 334 kts | 308° |
| 2026-05-06 20:25 | 40.55944 | 3.21853 | 17549 ft | 325 kts | 308° |
| 2026-05-06 20:25 | 40.57441 | 3.19672 | 17282 ft | 317 kts | 308° |
| 2026-05-06 20:25 | 40.58900 | 3.17542 | 17021 ft | 312 kts | 308° |
| 2026-05-06 20:26 | 40.60350 | 3.15427 | 16759 ft | 310 kts | 308° |
| 2026-05-06 20:26 | 40.61794 | 3.13316 | 16500 ft | 309 kts | 308° |
| 2026-05-06 20:26 | 40.63232 | 3.11212 | 16244 ft | 309 kts | 308° |
| 2026-05-06 20:26 | 40.64665 | 3.09113 | 15987 ft | 308 kts | 308° |
| 2026-05-06 20:27 | 40.66096 | 3.07016 | 15737 ft | 307 kts | 308° |
| 2026-05-06 20:27 | 40.67522 | 3.04922 | 15480 ft | 307 kts | 309° |
| 2026-05-06 20:27 | 40.68947 | 3.02834 | 15232 ft | 306 kts | 309° |
| 2026-05-06 20:27 | 40.70368 | 3.00752 | 14991 ft | 306 kts | 309° |
| 2026-05-06 20:28 | 40.71309 | 2.99371 | 14829 ft | 305 kts | 309° |
| 2026-05-06 20:28 | 40.72727 | 2.97292 | 14583 ft | 304 kts | 309° |
| 2026-05-06 20:28 | 40.74141 | 2.95218 | 14341 ft | 304 kts | 309° |
| 2026-05-06 20:28 | 40.75549 | 2.93148 | 14100 ft | 303 kts | 310° |
| 2026-05-06 20:29 | 40.76970 | 2.91083 | 13863 ft | 303 kts | 313° |
| 2026-05-06 20:29 | 40.78621 | 2.89360 | 13607 ft | 304 kts | 327° |
| 2026-05-06 20:29 | 40.80550 | 2.88191 | 13350 ft | 306 kts | 338° |
| 2026-05-06 20:29 | 40.82553 | 2.87235 | 13075 ft | 305 kts | 338° |
| 2026-05-06 20:30 | 40.84537 | 2.86280 | 12805 ft | 303 kts | 338° |
| 2026-05-06 20:30 | 40.88453 | 2.84377 | 12296 ft | 300 kts | 338° |
| 2026-05-06 20:30 | 40.90401 | 2.83428 | 12037 ft | 298 kts | 338° |
| 2026-05-06 20:31 | 40.92341 | 2.82487 | 11779 ft | 296 kts | 338° |
| 2026-05-06 20:31 | 40.94276 | 2.81547 | 11534 ft | 295 kts | 338° |
| 2026-05-06 20:31 | 40.96195 | 2.80611 | 11289 ft | 293 kts | 338° |
| 2026-05-06 20:31 | 40.98113 | 2.79673 | 11032 ft | 292 kts | 338° |
| 2026-05-06 20:32 | 41.00012 | 2.78744 | 10790 ft | 291 kts | 338° |
| 2026-05-06 20:32 | 41.01905 | 2.77822 | 10557 ft | 287 kts | 338° |
| 2026-05-06 20:32 | 41.03770 | 2.76915 | 10251 ft | 285 kts | 338° |
| 2026-05-06 20:32 | 41.05626 | 2.76009 | 9902 ft | 284 kts | 338° |
| 2026-05-06 20:33 | 41.07481 | 2.75103 | 9563 ft | 282 kts | 338° |
| 2026-05-06 20:33 | 41.09314 | 2.74209 | 9240 ft | 279 kts | 338° |
| 2026-05-06 20:33 | 41.11110 | 2.73332 | 8924 ft | 278 kts | 338° |
| 2026-05-06 20:33 | 41.12940 | 2.72433 | 8597 ft | 276 kts | 338° |
| 2026-05-06 20:34 | 41.14711 | 2.71562 | 8307 ft | 274 kts | 338° |
| 2026-05-06 20:34 | 41.16492 | 2.70684 | 8003 ft | 272 kts | 339° |
| 2026-05-06 20:34 | 41.18269 | 2.69812 | 7692 ft | 271 kts | 339° |
| 2026-05-06 20:34 | 41.20039 | 2.68946 | 7388 ft | 270 kts | 339° |
| 2026-05-06 20:35 | 41.21804 | 2.68080 | 7080 ft | 269 kts | 339° |
| 2026-05-06 20:35 | 41.23551 | 2.67195 | 6770 ft | 267 kts | 334° |
| 2026-05-06 20:35 | 41.25101 | 2.65868 | 6481 ft | 264 kts | 318° |
| 2026-05-06 20:35 | 41.26294 | 2.64027 | 6175 ft | 265 kts | 302° |
| 2026-05-06 20:36 | 41.27146 | 2.61858 | 5867 ft | 265 kts | 296° |
| 2026-05-06 20:36 | 41.27957 | 2.59697 | 5579 ft | 264 kts | 296° |
| 2026-05-06 20:36 | 41.28775 | 2.57521 | 5278 ft | 263 kts | 296° |
| 2026-05-06 20:36 | 41.29591 | 2.55348 | 5007 ft | 262 kts | 296° |
| 2026-05-06 20:37 | 41.30402 | 2.53185 | 4714 ft | 261 kts | 296° |
| 2026-05-06 20:37 | 41.31210 | 2.51029 | 4416 ft | 260 kts | 296° |
| 2026-05-06 20:37 | 41.32014 | 2.48878 | 4124 ft | 259 kts | 296° |
| 2026-05-06 20:37 | 41.32810 | 2.46751 | 3979 ft | 252 kts | 295° |
| 2026-05-06 20:38 | 41.33573 | 2.44711 | 3874 ft | 240 kts | 295° |
| 2026-05-06 20:38 | 41.34302 | 2.42760 | 3566 ft | 232 kts | 295° |
| 2026-05-06 20:38 | 41.35012 | 2.40846 | 3237 ft | 230 kts | 295° |
| 2026-05-06 20:38 | 41.35721 | 2.38940 | 3011 ft | 230 kts | 295° |
| 2026-05-06 20:39 | 41.36434 | 2.37033 | 2886 ft | 231 kts | 295° |
| 2026-05-06 20:39 | 41.37152 | 2.35107 | 2749 ft | 232 kts | 295° |
| 2026-05-06 20:39 | 41.37643 | 2.33088 | 2536 ft | 229 kts | 274° |
| 2026-05-06 20:39 | 41.37533 | 2.30992 | 2391 ft | 226 kts | 252° |
| 2026-05-06 20:40 | 41.36938 | 2.29064 | 2325 ft | 223 kts | 244° |
| 2026-05-06 20:40 | 41.36319 | 2.27245 | 2323 ft | 207 kts | 244° |
| 2026-05-06 20:40 | 41.35747 | 2.25559 | 2324 ft | 193 kts | 244° |
| 2026-05-06 20:40 | 41.35209 | 2.23979 | 2218 ft | 188 kts | 244° |
| 2026-05-06 20:41 | 41.34673 | 2.22404 | 1990 ft | 186 kts | 244° |
| 2026-05-06 20:41 | 41.34147 | 2.20858 | 1747 ft | 180 kts | 244° |
| 2026-05-06 20:41 | 41.33634 | 2.19353 | 1504 ft | 177 kts | 244° |
| 2026-05-06 20:41 | 41.33143 | 2.17910 | 1300 ft | 161 kts | 244° |
| 2026-05-06 20:42 | 41.32707 | 2.16628 | 1082 ft | 146 kts | 244° |
| 2026-05-06 20:42 | 41.32306 | 2.15453 | 894 ft | 135 kts | 244° |
| 2026-05-06 20:42 | 41.31918 | 2.14318 | 704 ft | 134 kts | 244° |
| 2026-05-06 20:42 | 41.31532 | 2.13192 | 521 ft | 135 kts | 244° |
| 2026-05-06 20:43 | 41.31139 | 2.12056 | 320 ft | 136 kts | 245° |
| 2026-05-06 20:43 | 41.30741 | 2.10908 | 158 ft | 137 kts | 247° |
| 2026-05-06 20:43 | 41.30362 | 2.09756 | 32 ft | 132 kts | 248° |
| 2026-05-06 20:43 | 41.30027 | 2.08786 | 21 ft | 90 kts | 245° |
| 2026-05-06 20:44 | 41.29858 | 2.08356 | 24 ft | 35 kts | 224° |
| 2026-05-06 20:44 | 41.29724 | 2.08208 | 17 ft | 5 kts | 213° |
| 2026-05-06 20:44 | 41.29692 | 2.08190 | 19 ft | 4 kts | 179° |
| 2026-05-06 20:44 | 41.29652 | 2.08208 | 17 ft | 7 kts | 153° |
| 2026-05-06 20:45 | 41.29590 | 2.08243 | 15 ft | 12 kts | 156° |
| 2026-05-06 20:45 | 41.29507 | 2.08292 | 17 ft | 12 kts | 155° |
| 2026-05-06 20:45 | 41.29438 | 2.08335 | 18 ft | 12 kts | 155° |
| 2026-05-06 20:45 | 41.29365 | 2.08324 | 20 ft | 12 kts | 248° |
| 2026-05-06 20:46 | 41.29332 | 2.08215 | 21 ft | 14 kts | 247° |
| 2026-05-06 20:46 | 41.29291 | 2.08097 | 19 ft | 14 kts | 245° |
| 2026-05-06 20:46 | 41.29245 | 2.07966 | 21 ft | 17 kts | 245° |
| 2026-05-06 20:46 | 41.29205 | 2.07850 | 19 ft | 7 kts | 246° |
| 2026-05-06 20:47 | 41.29197 | 2.07827 | 21 ft | 3 kts | 246° |
| 2026-05-06 20:47 | 41.29178 | 2.07813 | 19 ft | 4 kts | 182° |
| 2026-05-06 20:47 | 41.29142 | 2.07830 | 19 ft | 7 kts | 154° |
| 2026-05-06 20:47 | 41.29123 | 2.07841 | 20 ft | 0 kts | 156° |
| 2026-05-06 20:48 | 41.29118 | 2.07844 | 19 ft | 0 kts | 157° |